Time;durP1;ratioP1;P1;durP2;ratioP2;P2;SDS_P1;SDS_P2;PMS_P1;PMS_P2;Temp;Humidity;BMP_temperature;BMP_pressure;BME280_temperature;BME280_humidity;BME280_pressure;Samples;Min_cycle;Max_cycle;Signal;HPM_P1;HPM_P2
2023/12/12 00:00:34;;;;;;;48.70;30.05;;;;;;;7.66;100.00;124746.31;5049436;28;20048;-64
2023/12/12 00:02:59;;;;;;;42.55;27.20;;;;;;;7.72;100.00;125803.66;5050707;28;20025;-64
2023/12/12 00:05:25;;;;;;;44.20;26.48;;;;;;;7.68;100.00;128237.19;5049322;28;20045;-64
2023/12/12 00:07:50;;;;;;;60.20;26.92;;;;;;;7.69;100.00;129635.31;5050672;28;20021;-62
2023/12/12 00:10:16;;;;;;;54.80;28.27;;;;;;;7.72;100.00;131736.66;5048500;28;20224;-62
2023/12/12 00:12:41;;;;;;;54.75;28.70;;;;;;;7.71;100.00;133482.19;5050876;28;20052;-62
2023/12/12 00:15:07;;;;;;;47.35;28.52;;;;;;;7.71;100.00;134878.88;5049221;28;20499;-62
2023/12/12 00:17:32;;;;;;;45.42;26.15;;;;;;;7.59;100.00;135902.94;5048942;28;20392;-62
2023/12/12 00:19:58;;;;;;;52.55;28.02;;;;;;;7.53;100.00;137286.59;5049258;28;20033;-62
2023/12/12 00:22:23;;;;;;;52.28;26.02;;;;;;;7.52;100.00;136935.88;5050167;28;20032;-62
2023/12/12 00:24:48;;;;;;;39.63;25.90;;;;;;;7.51;100.00;136234.53;5048820;28;20552;-62
2023/12/12 00:27:14;;;;;;;50.20;26.13;;;;;;;7.50;100.00;134833.38;5050445;28;20017;-62
2023/12/12 00:29:40;;;;;;;47.95;23.58;;;;;;;7.51;100.00;133439.34;5049088;28;20052;-64
2023/12/12 00:32:06;;;;;;;43.67;25.00;;;;;;;7.48;100.00;132734.31;5050129;28;20021;-63
2023/12/12 00:34:35;;;;;;;41.03;23.40;;;;;;;7.53;100.00;130300.22;5048849;28;20095;-63
2023/12/12 00:37:01;;;;;;;52.75;28.88;;;;;;;7.54;100.00;128558.66;5050144;28;20049;-63
2023/12/12 00:39:26;;;;;;;47.47;26.20;;;;;;;7.55;100.00;127863.06;5047742;28;20037;-63
2023/12/12 00:41:51;;;;;;;49.85;27.73;;;;;;;7.53;100.00;128207.69;5050418;28;20523;-63
2023/12/12 00:44:17;;;;;;;41.78;26.13;;;;;;;7.52;100.00;128902.25;5048789;28;20091;-63
2023/12/12 00:46:42;;;;;;;53.45;28.95;;;;;;;7.51;100.00;129250.09;5049943;28;20094;-68
2023/12/12 00:49:08;;;;;;;54.67;26.35;;;;;;;7.57;100.00;129262.84;5049032;28;20028;-63
2023/12/12 00:51:33;;;;;;;39.88;27.88;;;;;;;7.51;100.00;130646.03;5049726;28;20025;-63
2023/12/12 00:53:58;;;;;;;43.67;25.98;;;;;;;7.45;100.00;131331.22;5048406;28;20028;-63
2023/12/12 00:56:24;;;;;;;44.58;27.55;;;;;;;7.47;100.00;131336.63;5050358;28;20028;-63
2023/12/12 00:58:49;;;;;;;56.08;25.08;;;;;;;7.56;100.00;131354.97;5050399;28;20086;-63
2023/12/12 01:01:15;;;;;;;53.13;25.25;;;;;;;7.60;100.00;132062.03;5048335;28;20060;-64
2023/12/12 01:03:40;;;;;;;52.40;24.23;;;;;;;7.47;100.00;133779.84;5050851;28;20020;-64
2023/12/12 01:06:06;;;;;;;46.67;26.02;;;;;;;7.49;100.00;134133.53;5049216;28;20041;-64
2023/12/12 01:08:32;;;;;;;41.85;24.77;;;;;;;7.44;100.00;134123.63;5049701;28;20606;-64
2023/12/12 01:10:58;;;;;;;46.75;25.27;;;;;;;7.47;100.00;134827.84;5048820;28;20064;-64
2023/12/12 01:13:23;;;;;;;51.58;25.20;;;;;;;7.47;100.00;134827.84;5050485;28;20025;-64
2023/12/12 01:15:49;;;;;;;50.65;24.90;;;;;;;7.46;100.00;134826.69;5048669;28;20045;-64
2023/12/12 01:18:14;;;;;;;40.90;24.33;;;;;;;7.45;100.00;135522.16;5050257;28;20024;-63
2023/12/12 01:20:39;;;;;;;38.38;22.90;;;;;;;7.39;100.00;136907.66;5048845;28;20412;-63
2023/12/12 01:23:05;;;;;;;44.47;25.10;;;;;;;7.43;100.00;139712.75;5049943;28;20078;-66
2023/12/12 01:25:31;;;;;;;53.58;25.45;;;;;;;7.38;100.00;142501.25;5048644;28;20044;-63
2023/12/12 01:27:56;;;;;;;54.05;26.83;;;;;;;7.34;100.00;144942.25;5049918;28;20021;-63
2023/12/12 01:30:22;;;;;;;46.80;24.73;;;;;;;7.37;100.00;145648.63;5047915;28;20045;-63
2023/12/12 01:32:47;;;;;;;40.97;25.15;;;;;;;7.39;100.00;146704.31;5050295;28;20036;-63
2023/12/12 01:35:12;;;;;;;41.17;22.80;;;;;;;7.37;100.00;147750.56;5048711;28;20037;-63
2023/12/12 01:37:38;;;;;;;32.78;22.02;;;;;;;7.36;100.00;149149.97;5049353;28;20079;-63
2023/12/12 01:40:04;;;;;;;42.17;25.42;;;;;;;7.36;100.00;150552.31;5048743;28;20621;-63
2023/12/12 01:42:30;;;;;;;57.60;25.85;;;;;;;7.36;100.00;150552.31;5049770;28;20040;-63
2023/12/12 01:44:55;;;;;;;42.92;23.85;;;;;;;7.33;100.00;150895.50;5048480;28;20041;-63
2023/12/12 01:47:21;;;;;;;53.75;27.45;;;;;;;7.36;100.00;149851.06;5049806;28;20021;-63
2023/12/12 01:49:46;;;;;;;41.50;24.48;;;;;;;7.37;100.00;149152.44;5048311;28;20041;-63
2023/12/12 01:52:13;;;;;;;46.63;26.00;;;;;;;7.35;100.00;149147.50;5052824;28;20024;-63
2023/12/12 01:54:41;;;;;;;40.08;23.90;;;;;;;7.36;100.00;148799.47;5052230;28;20041;-63
2023/12/12 01:57:07;;;;;;;49.85;23.10;;;;;;;7.36;100.00;148799.47;5053720;28;20036;-63
2023/12/12 01:59:34;;;;;;;41.00;24.85;;;;;;;7.38;100.00;148103.44;5051974;28;20048;-63
2023/12/12 02:02:00;;;;;;;36.92;25.15;;;;;;;7.35;100.00;148446.53;5053390;28;20021;-63
2023/12/12 02:04:25;;;;;;;45.33;24.73;;;;;;;7.37;100.00;148803.13;5051870;28;20055;-63
2023/12/12 02:06:53;;;;;;;45.20;21.65;;;;;;;7.36;100.00;149851.06;5053821;28;20033;-63
2023/12/12 02:09:19;;;;;;;45.70;25.10;;;;;;;7.34;100.00;150548.59;5051444;28;20103;-63
2023/12/12 02:11:45;;;;;;;40.22;24.90;;;;;;;7.17;100.00;150858.06;5053206;28;20028;-63
2023/12/12 02:14:10;;;;;;;48.10;24.23;;;;;;;7.31;100.00;152294.53;5052094;28;20032;-62
2023/12/12 02:16:35;;;;;;;38.92;24.30;;;;;;;7.25;100.00;154034.75;5052654;28;20119;-63
2023/12/12 02:19:01;;;;;;;39.50;23.40;;;;;;;7.27;100.00;155091.34;5051679;28;20032;-62
2023/12/12 02:21:26;;;;;;;40.17;20.77;;;;;;;7.25;100.00;156287.31;5053130;28;20032;-62
2023/12/12 02:23:52;;;;;;;49.17;26.90;;;;;;;7.21;100.00;157664.94;5052826;28;20389;-63
2023/12/12 02:26:17;;;;;;;44.63;22.58;;;;;;;7.18;100.00;158536.34;5051548;28;20037;-63
2023/12/12 02:28:42;;;;;;;40.20;24.63;;;;;;;7.07;100.00;158820.19;5053308;28;20024;-63
2023/12/12 02:31:09;;;;;;;47.33;23.60;;;;;;;7.14;100.00;158591.66;5051350;28;20513;-63
2023/12/12 02:33:34;;;;;;;44.33;23.00;;;;;;;7.10;100.00;158708.69;5052291;28;20098;-62
2023/12/12 02:36:00;;;;;;;43.88;22.27;;;;;;;7.10;100.00;158597.66;5051527;28;20147;-62
2023/12/12 02:38:25;;;;;;;40.28;24.48;;;;;;;7.05;100.00;158821.75;5052492;28;20033;-63
2023/12/12 02:40:51;;;;;;;36.63;24.23;;;;;;;7.07;100.00;158938.16;5051648;28;20048;-64
2023/12/12 02:43:16;;;;;;;47.90;23.55;;;;;;;7.06;100.00;158813.41;5052658;28;20020;-64
2023/12/12 02:45:42;;;;;;;45.65;25.50;;;;;;;7.04;100.00;158872.63;5050858;28;20520;-65
2023/12/12 02:48:07;;;;;;;42.22;25.10;;;;;;;7.02;100.00;158661.66;5052546;28;20115;-64
2023/12/12 02:50:32;;;;;;;41.33;25.48;;;;;;;6.98;100.00;158179.22;5051191;28;20033;-64
2023/12/12 02:52:58;;;;;;;48.60;25.80;;;;;;;6.95;100.00;157917.72;5052303;28;20025;-63
2023/12/12 02:55:23;;;;;;;43.90;26.73;;;;;;;6.90;100.00;157228.66;5051060;28;20041;-63
2023/12/12 02:57:48;;;;;;;44.75;25.75;;;;;;;6.90;100.00;155092.09;5052235;28;20025;-63
2023/12/12 03:00:14;;;;;;;48.65;29.10;;;;;;;6.97;100.00;151860.88;5050555;28;20041;-63
2023/12/12 03:02:39;;;;;;;53.33;26.30;;;;;;;6.99;100.00;149764.38;5051871;28;20106;-63
2023/12/12 03:05:05;;;;;;;45.13;27.45;;;;;;;6.99;100.00;149763.16;5051208;28;20048;-63
2023/12/12 03:07:30;;;;;;;46.08;27.60;;;;;;;6.98;100.00;150461.47;5051721;28;20024;-63
2023/12/12 03:09:56;;;;;;;45.08;25.13;;;;;;;6.95;100.00;151857.13;5050881;28;20048;-63
2023/12/12 03:12:21;;;;;;;50.55;28.30;;;;;;;6.94;100.00;153956.94;5052371;28;20032;-63
2023/12/12 03:14:47;;;;;;;38.90;26.25;;;;;;;6.94;100.00;155734.03;5050244;28;20036;-64
2023/12/12 03:17:12;;;;;;;47.25;30.38;;;;;;;6.93;100.00;157562.81;5051873;28;20040;-63
2023/12/12 03:19:37;;;;;;;49.40;28.55;;;;;;;6.90;100.00;159260.84;5050668;28;20048;-63
2023/12/12 03:22:03;;;;;;;42.35;25.20;;;;;;;6.89;100.00;160162.19;5052036;28;20024;-63
2023/12/12 03:24:28;;;;;;;37.40;28.92;;;;;;;6.90;100.00;159968.63;5050531;28;20123;-63
2023/12/12 03:26:54;;;;;;;39.30;24.08;;;;;;;6.90;100.00;159392.50;5052347;28;20021;-65
2023/12/12 03:29:19;;;;;;;49.25;28.90;;;;;;;6.88;100.00;159272.06;5049932;28;20037;-65
2023/12/12 03:31:44;;;;;;;41.22;26.25;;;;;;;6.92;100.00;158267.72;5051827;28;20021;-64
2023/12/12 03:34:10;;;;;;;32.95;25.85;;;;;;;6.79;100.00;158491.38;5050501;28;20078;-62
2023/12/12 03:36:35;;;;;;;42.25;27.02;;;;;;;6.90;100.00;158306.34;5051091;28;20048;-62
2023/12/12 03:39:02;;;;;;;36.15;24.80;;;;;;;6.87;100.00;158978.66;5050278;28;20192;-63
2023/12/12 03:41:29;;;;;;;43.13;26.20;;;;;;;6.87;100.00;159569.78;5051479;28;20029;-63
2023/12/12 03:43:54;;;;;;;47.65;23.60;;;;;;;6.70;100.00;161160.97;5050089;28;20428;-62
2023/12/12 03:46:20;;;;;;;41.13;24.98;;;;;;;6.82;100.00;162348.41;5051404;28;20067;-63
2023/12/12 03:48:46;;;;;;;35.53;22.02;;;;;;;6.76;100.00;162333.66;5050192;28;20031;-64
2023/12/12 03:51:11;;;;;;;31.15;25.27;;;;;;;6.67;100.00;162310.72;5049768;28;20037;-63
2023/12/12 03:53:38;;;;;;;49.65;24.25;;;;;;;6.64;100.00;162301.31;5051363;28;20029;-63
2023/12/12 03:56:04;;;;;;;45.75;25.35;;;;;;;6.62;100.00;162295.94;5050152;28;20059;-63
2023/12/12 03:58:29;;;;;;;30.40;21.60;;;;;;;6.58;100.00;162285.16;5050670;28;20479;-63
2023/12/12 04:00:55;;;;;;;37.28;23.35;;;;;;;6.50;100.00;162266.31;5050042;28;20045;-63
2023/12/12 04:03:21;;;;;;;38.92;24.65;;;;;;;6.48;100.00;162259.59;5051210;28;20028;-63
2023/12/12 04:05:46;;;;;;;42.70;23.08;;;;;;;6.43;100.00;162246.13;5049629;28;20044;-63
2023/12/12 04:08:11;;;;;;;39.13;21.60;;;;;;;6.32;100.00;162219.19;5051334;28;20404;-62
2023/12/12 04:10:37;;;;;;;48.05;23.73;;;;;;;6.26;100.00;162203.06;5049382;28;20044;-63
2023/12/12 04:13:03;;;;;;;40.00;23.77;;;;;;;6.19;100.00;162184.22;5050149;28;20036;-63
2023/12/12 04:15:28;;;;;;;41.63;24.75;;;;;;;6.10;100.00;162159.97;5049299;28;20126;-63
2023/12/12 04:17:54;;;;;;;41.28;21.95;;;;;;;5.99;100.00;162133.09;5050992;28;20040;-64
2023/12/12 04:20:19;;;;;;;39.95;24.15;;;;;;;5.91;100.00;162110.13;5049132;28;20098;-64
2023/12/12 04:22:45;;;;;;;27.42;21.70;;;;;;;5.76;100.00;162071.13;5051112;28;20028;-64
2023/12/12 04:25:13;;;;;;;29.17;20.38;;;;;;;5.69;100.00;162053.63;5049503;28;20045;-65
2023/12/12 04:27:39;;;;;;;36.15;20.73;;;;;;;5.58;100.00;162025.38;5050717;28;20025;-68
2023/12/12 04:30:05;;;;;;;36.10;19.40;;;;;;;5.48;100.00;161998.44;5049397;28;20072;-65
2023/12/12 04:32:33;;;;;;;33.47;21.98;;;;;;;5.37;100.00;161971.56;5050542;28;20092;-64
2023/12/12 04:35:00;;;;;;;42.90;25.85;;;;;;;5.30;100.00;161952.72;5048081;28;20446;-64
2023/12/12 04:37:25;;;;;;;34.30;24.50;;;;;;;5.22;100.00;161931.19;5049878;28;20128;-64
2023/12/12 04:39:51;;;;;;;39.38;23.40;;;;;;;5.14;100.00;161909.69;5049493;28;20098;-64
2023/12/12 04:42:16;;;;;;;36.63;23.25;;;;;;;5.06;100.00;161890.84;5050591;28;20025;-64
2023/12/12 04:44:42;;;;;;;39.03;20.85;;;;;;;5.06;100.00;161890.84;5048858;28;20067;-64
2023/12/12 04:47:08;;;;;;;33.45;23.23;;;;;;;4.90;100.00;161847.81;5050667;28;20033;-64
2023/12/12 04:49:34;;;;;;;32.78;22.70;;;;;;;4.87;100.00;161839.78;5049083;28;20028;-63
2023/12/12 04:51:59;;;;;;;39.88;21.20;;;;;;;4.79;100.00;161818.25;5050169;28;20365;-64
2023/12/12 04:54:24;;;;;;;51.15;23.48;;;;;;;4.67;100.00;161788.63;5048937;28;20040;-63
2023/12/12 04:56:50;;;;;;;45.20;23.00;;;;;;;4.58;100.00;161764.44;5050706;28;20021;-64
2023/12/12 04:59:15;;;;;;;28.00;21.05;;;;;;;4.45;100.00;161732.19;5048459;28;20040;-63
2023/12/12 05:01:42;;;;;;;33.70;21.42;;;;;;;4.35;100.00;161703.94;5050388;28;20017;-65
2023/12/12 05:04:07;;;;;;;36.17;23.95;;;;;;;4.28;100.00;161686.50;5048715;28;20500;-65
2023/12/12 05:06:32;;;;;;;41.58;23.02;;;;;;;4.17;100.00;161658.22;5050209;28;20029;-67
2023/12/12 05:08:58;;;;;;;52.90;23.15;;;;;;;4.10;100.00;161640.78;5048810;28;20047;-65
2023/12/12 05:11:23;;;;;;;32.83;19.75;;;;;;;4.02;100.00;161617.97;5050572;28;20029;-63
2023/12/12 05:13:48;;;;;;;39.15;22.42;;;;;;;3.94;100.00;161599.16;5048749;28;20590;-63
2023/12/12 05:16:14;;;;;;;35.65;20.77;;;;;;;3.88;100.00;161582.97;5048131;28;20053;-63
2023/12/12 05:18:39;;;;;;;60.08;23.30;;;;;;;3.83;100.00;161568.22;5049848;28;20056;-63
2023/12/12 05:21:05;;;;;;;38.35;21.10;;;;;;;3.77;100.00;161554.75;5048478;28;20055;-63
2023/12/12 05:23:30;;;;;;;52.28;25.42;;;;;;;3.81;100.00;161564.16;5049935;28;20495;-63
2023/12/12 05:25:55;;;;;;;41.47;22.60;;;;;;;3.86;100.00;161576.25;5041474;28;20052;-63
2023/12/12 05:28:21;;;;;;;42.90;23.58;;;;;;;3.88;100.00;161581.66;5033952;28;20021;-63
2023/12/12 05:30:47;;;;;;;41.55;22.67;;;;;;;3.87;100.00;161580.28;5032965;28;20041;-64
2023/12/12 05:33:12;;;;;;;66.85;25.10;;;;;;;3.89;100.00;161584.34;5034314;28;20587;-64
2023/12/12 05:35:38;;;;;;;43.97;23.13;;;;;;;3.88;100.00;161581.66;5032193;28;20590;-59
2023/12/12 05:38:04;;;;;;;39.40;25.75;;;;;;;3.87;100.00;161578.97;5033989;28;20385;-59
2023/12/12 05:40:30;;;;;;;41.30;21.55;;;;;;;3.83;100.00;161569.56;5045062;28;20063;-59
2023/12/12 05:42:56;;;;;;;53.08;23.45;;;;;;;3.80;100.00;161562.84;5053750;28;20467;-59
2023/12/12 05:45:22;;;;;;;68.70;22.25;;;;;;;3.81;100.00;161564.16;5051981;28;20037;-59
2023/12/12 05:47:47;;;;;;;50.15;23.88;;;;;;;3.82;100.00;161566.84;5054219;28;20013;-59
2023/12/12 05:50:12;;;;;;;45.42;24.35;;;;;;;3.81;100.00;161564.16;5052239;28;20551;-59
2023/12/12 05:52:38;;;;;;;31.63;20.58;;;;;;;3.79;100.00;161558.81;5053627;28;20029;-59
2023/12/12 05:55:05;;;;;;;42.90;21.02;;;;;;;3.73;100.00;161544.03;5052515;28;20057;-59
2023/12/12 05:57:32;;;;;;;54.15;22.88;;;;;;;3.68;100.00;161529.25;5053161;28;20029;-59
2023/12/12 05:59:57;;;;;;;44.22;23.83;;;;;;;3.63;100.00;161518.50;5052308;28;20098;-59
2023/12/12 06:02:22;;;;;;;44.95;24.27;;;;;;;3.59;100.00;161506.41;5048242;28;20480;-60
2023/12/12 06:04:48;;;;;;;52.92;23.83;;;;;;;3.54;100.00;161494.31;5042010;28;20048;-59
2023/12/12 06:07:14;;;;;;;67.82;27.02;;;;;;;3.55;100.00;161495.63;5039791;28;20376;-60
2023/12/12 06:09:39;;;;;;;40.30;23.42;;;;;;;3.51;100.00;161484.91;5041287;28;20048;-59
2023/12/12 06:12:06;;;;;;;84.72;23.58;;;;;;;3.46;100.00;161474.13;5040396;28;20468;-59
2023/12/12 06:14:31;;;;;;;68.93;24.63;;;;;;;3.42;100.00;161462.09;5039672;28;20079;-59
2023/12/12 06:16:57;;;;;;;224.90;37.92;;;;;;;3.37;100.00;161448.63;5044613;28;20029;-59
2023/12/12 06:19:23;;;;;;;178.93;30.15;;;;;;;3.32;100.00;161437.91;5040878;28;20064;-59
2023/12/12 06:21:52;;;;;;;125.40;24.65;;;;;;;3.30;100.00;161431.19;5043853;28;20044;-59
2023/12/12 06:24:17;;;;;;;;;;;;;;;3.25;100.00;161417.72;5042938;28;20095;-59
2023/12/12 06:26:42;;;;;;;283.33;36.38;;;;;;;3.23;100.00;161412.38;5040248;28;19912;-60
2023/12/12 06:29:09;;;;;;;89.90;23.70;;;;;;;3.19;100.00;161402.97;5041930;28;20013;-59
2023/12/12 06:31:35;;;;;;;344.00;41.00;;;;;;;3.11;100.00;161382.81;5041635;28;20676;-59
2023/12/12 06:34:01;;;;;;;97.20;26.15;;;;;;;3.14;100.00;161390.88;5042448;28;20024;-59
2023/12/12 06:36:26;;;;;;;95.28;23.38;;;;;;;3.08;100.00;161373.41;5051188;28;20049;-59
2023/12/12 06:38:51;;;;;;;108.13;25.67;;;;;;;3.04;100.00;161364.00;5052130;28;20112;-59
2023/12/12 06:41:17;;;;;;;96.47;27.35;;;;;;;3.04;100.00;161364.00;5048186;28;20129;-59
2023/12/12 06:43:45;;;;;;;79.85;18.98;;;;;;;2.95;100.00;161339.81;5051294;28;20066;-60
2023/12/12 06:46:11;;;;;;;50.80;21.80;;;;;;;2.85;100.00;161315.69;5050373;28;20457;-59
2023/12/12 06:48:37;;;;;;;311.25;40.25;;;;;;;2.86;100.00;161317.00;5051254;28;20021;-59
2023/12/12 06:51:04;;;;;;;88.60;23.52;;;;;;;2.78;100.00;161296.88;5050696;28;20064;-59
2023/12/12 06:53:29;;;;;;;173.52;29.80;;;;;;;2.80;100.00;161302.22;5052771;28;20028;-59
2023/12/12 06:55:54;;;;;;;29.40;18.60;;;;;;;2.80;100.00;161302.22;5049939;28;20106;-59
2023/12/12 06:58:22;;;;;;;53.70;21.92;;;;;;;2.78;100.00;161295.53;5052255;28;20044;-59
2023/12/12 07:00:47;;;;;;;180.15;29.52;;;;;;;2.80;100.00;161302.22;5051115;28;20116;-59
2023/12/12 07:03:13;;;;;;;91.75;21.52;;;;;;;2.75;100.00;161288.81;5051915;28;20455;-59
2023/12/12 07:05:39;;;;;;;272.27;37.03;;;;;;;2.70;100.00;161275.41;5049638;28;20048;-59
2023/12/12 07:08:05;;;;;;;57.67;22.70;;;;;;;2.65;100.00;161261.94;5051977;28;20025;-59
2023/12/12 07:10:31;;;;;;;71.70;23.60;;;;;;;2.61;100.00;161251.22;5050229;28;20053;-59
2023/12/12 07:12:58;;;;;;;296.42;39.15;;;;;;;2.59;100.00;161245.84;5052194;28;20032;-59
2023/12/12 07:15:25;;;;;;;150.65;22.63;;;;;;;2.58;100.00;161243.16;5050321;28;20496;-59
2023/12/12 07:17:50;;;;;;;182.60;32.90;;;;;;;2.59;100.00;161245.84;5051909;28;20044;-59
2023/12/12 07:20:16;;;;;;;231.20;28.65;;;;;;;2.69;100.00;161274.03;5050513;28;20045;-60
2023/12/12 07:22:42;;;;;;;326.33;36.80;;;;;;;2.78;100.00;161296.88;5052016;28;20043;-59
2023/12/12 07:25:08;;;;;;;56.88;22.38;;;;;;;2.78;100.00;161296.88;5050539;28;20094;-59
2023/12/12 07:27:34;;;;;;;46.63;20.63;;;;;;;2.80;100.00;161302.22;5032609;28;20029;-59
2023/12/12 07:29:59;;;;;;;48.05;22.17;;;;;;;2.85;100.00;161315.69;5039240;28;20057;-59
2023/12/12 07:32:26;;;;;;;110.57;27.05;;;;;;;2.90;100.00;161327.78;5051851;28;20032;-60
2023/12/12 07:34:52;;;;;;;110.25;33.42;;;;;;;2.95;100.00;161341.19;5048669;28;20068;-59
2023/12/12 07:37:17;;;;;;;125.88;30.20;;;;;;;3.04;100.00;161364.00;5051097;28;20400;-59
2023/12/12 07:39:43;;;;;;;162.93;35.22;;;;;;;3.17;100.00;161397.59;5050174;28;20052;-59
2023/12/12 07:42:08;;;;;;;412.20;58.47;;;;;;;3.30;100.00;161199.25;5051100;28;20029;-60
2023/12/12 07:44:33;;;;;;;436.30;58.65;;;;;;;3.43;100.00;159234.06;5049797;28;20045;-60
2023/12/12 07:47:02;;;;;;;362.63;50.97;;;;;;;3.55;100.00;156418.38;5051579;28;20044;-60
2023/12/12 07:49:28;;;;;;;187.77;40.05;;;;;;;3.71;100.00;152812.41;5049223;28;20431;-59
2023/12/12 07:51:54;;;;;;;134.38;37.13;;;;;;;3.86;100.00;149709.25;5051437;28;20165;-59
2023/12/12 07:54:20;;;;;;;172.00;40.15;;;;;;;4.01;100.00;146260.94;5048563;28;20033;-60
2023/12/12 07:56:45;;;;;;;156.25;37.03;;;;;;;4.15;100.00;143157.25;5050452;28;20111;-60
2023/12/12 07:59:11;;;;;;;89.88;31.73;;;;;;;4.28;100.00;140402.63;5049802;28;20017;-60
2023/12/12 08:01:37;;;;;;;123.05;33.85;;;;;;;4.43;100.00;137305.22;5050950;28;20491;-60
2023/12/12 08:04:04;;;;;;;128.73;37.25;;;;;;;4.54;100.00;134546.38;5049791;28;20437;-60
2023/12/12 08:06:30;;;;;;;120.82;31.92;;;;;;;4.72;100.00;132150.16;5051054;28;20480;-60
2023/12/12 08:08:55;;;;;;;169.73;33.45;;;;;;;4.79;100.00;130426.44;5049499;28;20075;-58
2023/12/12 08:11:24;;;;;;;110.93;34.55;;;;;;;4.88;100.00;128708.34;5050449;28;20025;-60
2023/12/12 08:13:49;;;;;;;71.38;27.92;;;;;;;4.89;100.00;128015.69;5049306;28;20052;-59
2023/12/12 08:16:15;;;;;;;63.90;27.70;;;;;;;4.97;100.00;126643.19;5047929;28;20484;-60
2023/12/12 08:18:40;;;;;;;67.80;28.70;;;;;;;5.08;100.00;124929.75;5049962;28;20029;-59
2023/12/12 08:21:08;;;;;;;85.20;31.00;;;;;;;5.13;100.00;124590.75;5031203;28;20044;-59
2023/12/12 08:23:34;;;;;;;82.40;29.88;;;;;;;5.18;100.00;123212.28;5030398;28;20501;-59
2023/12/12 08:26:00;;;;;;;80.07;29.10;;;;;;;5.24;100.00;122531.25;5027932;28;20315;-60
2023/12/12 08:28:26;;;;;;;74.97;29.35;;;;;;;5.31;100.00;121850.16;5030952;28;20032;-60
2023/12/12 08:30:51;;;;;;;81.05;30.40;;;;;;;5.36;100.00;121513.09;5029494;28;20428;-59
2023/12/12 08:33:18;;;;;;;78.43;30.88;;;;;;;5.40;100.00;120479.91;5030193;28;20029;-59
2023/12/12 08:35:43;;;;;;;65.00;25.60;;;;;;;5.47;100.00;119797.78;5029328;28;20044;-59
2023/12/12 08:38:09;;;;;;;52.88;26.08;;;;;;;5.49;100.00;119801.69;5030550;28;20045;-59
2023/12/12 08:40:34;;;;;;;74.93;31.27;;;;;;;5.57;100.00;119123.44;5028910;28;20049;-59
2023/12/12 08:42:59;;;;;;;68.00;27.80;;;;;;;5.67;100.00;118101.03;5030716;28;20060;-59
2023/12/12 08:45:25;;;;;;;56.90;28.48;;;;;;;5.75;100.00;117422.59;5027529;28;20045;-59
2023/12/12 08:47:50;;;;;;;63.42;27.05;;;;;;;5.81;100.00;116392.44;5030453;28;20025;-59
2023/12/12 08:50:15;;;;;;;71.90;30.13;;;;;;;5.86;100.00;116055.06;5028648;28;20514;-59
2023/12/12 08:52:41;;;;;;;63.35;27.48;;;;;;;5.91;100.00;115717.72;5030886;28;20053;-59
2023/12/12 08:55:10;;;;;;;71.70;29.60;;;;;;;5.91;100.00;115370.84;5038418;28;20037;-59
2023/12/12 08:57:35;;;;;;;73.13;29.33;;;;;;;5.97;100.00;115035.31;5050045;28;20029;-59
2023/12/12 09:00:02;;;;;;;76.50;27.45;;;;;;;6.10;100.00;114017.34;5051920;28;20044;-59
2023/12/12 09:02:27;;;;;;;65.57;28.67;;;;;;;6.11;100.00;114019.22;5056609;28;20098;-59
2023/12/12 09:04:52;;;;;;;53.20;25.45;;;;;;;6.22;100.00;113346.00;5055674;28;20492;-59
2023/12/12 09:07:18;;;;;;;64.15;28.90;;;;;;;6.26;100.00;113006.56;5056398;28;20029;-59
2023/12/12 09:09:43;;;;;;;68.88;28.17;;;;;;;6.41;100.00;111645.91;5054864;28;20037;-59
2023/12/12 09:12:09;;;;;;;69.93;30.20;;;;;;;6.50;100.00;110621.00;5056273;28;20404;-59
2023/12/12 09:14:34;;;;;;;53.85;27.10;;;;;;;6.71;100.00;108229.69;5055647;28;20052;-60
2023/12/12 09:17:00;;;;;;;67.60;27.83;;;;;;;6.88;100.00;106526.22;5056476;28;20021;-59
2023/12/12 09:19:25;;;;;;;76.40;29.45;;;;;;;6.97;100.00;105501.91;5053827;28;20048;-59
2023/12/12 09:21:51;;;;;;;60.08;27.08;;;;;;;7.11;100.00;104484.44;5057034;28;20029;-59
2023/12/12 09:24:16;;;;;;;74.13;26.67;;;;;;;7.23;100.00;103465.06;5054958;28;20033;-59
2023/12/12 09:26:43;;;;;;;71.60;26.92;;;;;;;7.32;100.00;103131.97;5057198;28;20025;-59
2023/12/12 09:29:08;;;;;;;64.55;25.42;;;;;;;7.36;100.00;103138.69;5055432;28;20048;-59
2023/12/12 09:31:35;;;;;;;45.17;23.70;;;;;;;7.50;100.00;103162.25;5056329;28;20029;-59
2023/12/12 09:34:00;;;;;;;59.38;24.63;;;;;;;7.38;100.00;103488.72;5055667;28;20025;-59
2023/12/12 09:36:26;;;;;;;60.65;22.05;;;;;;;7.73;100.00;102852.50;5056505;28;20466;-60
2023/12/12 09:38:51;;;;;;;41.70;21.17;;;;;;;7.81;100.00;103212.78;5054869;28;20438;-58
2023/12/12 09:41:22;;;;;;;63.63;25.00;;;;;;;7.82;100.00;104255.25;5056691;28;20027;-60
2023/12/12 09:43:48;;;;;;;45.00;19.67;;;;;;;7.86;100.00;104956.09;5057209;28;20027;-59
2023/12/12 09:46:15;;;;;;;56.72;24.45;;;;;;;7.85;100.00;107383.56;5054971;28;20045;-59
2023/12/12 09:48:44;;;;;;;60.58;21.60;;;;;;;7.99;100.00;109144.28;5056728;28;20079;-60
2023/12/12 09:51:12;;;;;;;55.17;17.92;;;;;;;7.87;100.00;113295.75;5055349;28;20045;-60
2023/12/12 09:53:46;;;;;;;55.97;23.60;;;;;;;7.94;100.00;116440.22;5056250;28;20112;-59
2023/12/12 09:56:14;;;;;;;53.63;22.98;;;;;;;7.94;100.00;120269.91;5055341;28;20052;-59
2023/12/12 09:58:40;;;;;;;51.60;18.98;;;;;;;7.87;100.00;124787.28;5056726;28;20028;-60
2023/12/12 10:01:07;;;;;;;55.63;19.52;;;;;;;7.88;100.00;128279.38;5054936;28;20048;-60
2023/12/12 10:03:32;;;;;;;40.50;19.25;;;;;;;8.06;100.00;130061.34;5056410;28;20029;-60
2023/12/12 10:06:03;;;;;;;49.88;17.52;;;;;;;7.96;100.00;133533.84;5055366;28;20071;-60
2023/12/12 10:08:28;;;;;;;48.35;18.65;;;;;;;8.04;100.00;136349.06;5055851;28;20025;-61
2023/12/12 10:10:54;;;;;;;46.08;18.52;;;;;;;8.04;100.00;139148.56;5053658;28;20413;-60
2023/12/12 10:13:19;;;;;;;48.40;17.40;;;;;;;8.02;100.00;142296.78;5052837;28;20499;-60
2023/12/12 10:15:45;;;;;;;58.53;23.60;;;;;;;8.00;100.00;145795.44;5051602;28;20496;-60
2023/12/12 10:18:10;;;;;;;45.67;20.15;;;;;;;8.09;100.00;147571.94;5050159;28;20029;-60
2023/12/12 10:20:36;;;;;;;45.85;16.15;;;;;;;8.22;100.00;148655.19;5051264;28;20041;-60
2023/12/12 10:23:04;;;;;;;61.67;21.25;;;;;;;8.32;100.00;150081.56;5052863;28;20074;-60
2023/12/12 10:25:31;;;;;;;39.45;16.70;;;;;;;8.30;100.00;154863.53;5051599;28;20328;-60
2023/12/12 10:27:57;;;;;;;41.58;14.68;;;;;;;8.22;100.00;162395.75;5053122;28;20108;-60
2023/12/12 10:30:23;;;;;;;51.15;17.88;;;;;;;8.31;100.00;162736.41;5050895;28;20045;-60
2023/12/12 10:32:53;;;;;;;40.70;16.27;;;;;;;8.38;100.00;162755.25;5053154;28;20465;-60
2023/12/12 10:35:23;;;;;;;41.25;14.05;;;;;;;8.41;100.00;162764.69;5051185;28;20484;-60
2023/12/12 10:37:49;;;;;;;38.88;14.38;;;;;;;8.44;100.00;162770.13;5052317;28;20199;-60
2023/12/12 10:40:19;;;;;;;36.80;14.07;;;;;;;8.36;100.00;162751.25;5051264;28;20565;-60
2023/12/12 10:42:44;;;;;;;29.90;14.95;;;;;;;8.37;100.00;162752.63;5053198;28;20024;-60
2023/12/12 10:45:15;;;;;;;37.20;15.93;;;;;;;8.46;100.00;162776.84;5051135;28;20048;-60
2023/12/12 10:47:45;;;;;;;46.83;15.27;;;;;;;8.54;100.00;162797.16;5052520;28;20024;-60
2023/12/12 10:50:15;;;;;;;32.38;11.80;;;;;;;8.50;100.00;162786.31;5050914;28;20037;-60
2023/12/12 10:52:43;;;;;;;36.97;15.20;;;;;;;8.53;100.00;162795.75;5051023;28;20036;-60
2023/12/12 10:55:18;;;;;;;59.87;12.47;;;;;;;8.53;100.00;162795.75;5050411;28;20492;-60
2023/12/12 10:57:47;;;;;;;45.83;17.40;;;;;;;8.59;100.00;162809.28;5052493;28;20029;-60
2023/12/12 11:00:14;;;;;;;29.92;12.00;;;;;;;8.63;100.00;162820.03;5050878;28;20198;-60
2023/12/12 11:02:44;;;;;;;46.10;16.15;;;;;;;8.67;100.00;162832.19;5052416;28;20482;-60